Main page
METAR-TAF:

METAR-TAF

Airports :

Wilmington Air Park

Wilmington, Ohio, United States

latitude: 39-25-42N, longitude: 083-46-45W, elevation: 1076 ft

Current weather observation

The report was made 38 minutes ago, at 10:54 UTC
Wind 6 mph from the South/Southwest
Temperature 28°F
Humidity 63%
Pressure 30.18 in. Hg
Visibility: 10 miles
Clear sky

METAR: KILN 231054Z AUTO 20005KT 10SM CLR M02/M08 A3018 RMK AO2 SLP243 T10221083

Time: 06:32 (11:32 UTC)

Forecast

The report was made 5 hours and 56 minutes ago, at 05:36 UTC
Forecast valid from 23 at 06 UTC to 24 at 06 UTC
Wind 8 mph from the South/Southwest
Visibility: 6 miles
Clear sky
From 23 at 1600 UTC
Wind 13 mph from the South/Southwest
Visibility: 6 miles
Scattered clouds at a height of 7000 ft
Broken clouds at a height of 25000 ft
From 24 at 0000 UTC
Wind 7 mph from the South/Southwest
Visibility: 6 miles
Broken clouds at a height of 20000 ft

TAF: KILN 230536Z 2306/2406 20007KT P6SM SKC FM231600 21011KT P6SM SCT070 BKN250 FM240000 21006KT P6SM BKN200

Weather observations and forecasts of more than 4000 airports (METAR and TAF reports).

The available stations are represented by yellow and red dots on the map.

Hover mouse over dot to see the name of the station.

Then click to see weather observations and forecasts.

To change the map : click on the green buttons with a black cross to zoom in, on the green button with a dash to zoom out, or on the green arrows for adjacent maps.


METAR-TAF: